Time,TemperatureF,DewpointF,PressureIn,WindDirection,WindDirectionDegrees,WindSpeedMPH,WindSpeedGustMPH,Humidity,HourlyPrecipIn,Conditions,Clouds,dailyrainin,SoftwareType,DateUTC
2013-04-25 00:06:00,43.9,43.6,29.80,West,270,8.9,-999.0,99,-99.99,,,0.00,Acu-Link.com,2013-04-25 07:06:00,
2013-04-25 00:21:00,43.9,43.6,29.81,WSW,247,9.4,-999.0,99,-99.99,,,0.00,Acu-Link.com,2013-04-25 07:21:00,
2013-04-25 00:36:00,43.9,43.6,29.81,West,270,6.8,-999.0,99,-99.99,,,0.00,Acu-Link.com,2013-04-25 07:36:00,
2013-04-25 00:51:00,43.9,43.6,29.81,SW,225,5.8,-999.0,99,-99.99,,,0.00,Acu-Link.com,2013-04-25 07:51:00,
2013-04-25 01:07:00,43.9,43.6,29.81,South,180,4.7,-999.0,99,-99.99,,,0.00,Acu-Link.com,2013-04-25 08:07:00,
2013-04-25 01:22:00,43.9,43.6,29.82,West,270,6.8,-999.0,99,-99.99,,,0.00,Acu-Link.com,2013-04-25 08:22:00,
2013-04-25 01:37:00,43.9,43.6,29.82,WNW,292,5.8,-999.0,99,-99.99,,,0.00,Acu-Link.com,2013-04-25 08:37:00,
2013-04-25 01:53:00,43.7,43.4,29.82,WSW,247,6.3,-999.0,99,-99.99,,,0.00,Acu-Link.com,2013-04-25 08:53:00,
2013-04-25 02:08:00,43.7,43.4,29.82,SW,225,6.8,-999.0,99,-99.99,,,0.00,Acu-Link.com,2013-04-25 09:08:00,
2013-04-25 02:23:00,43.5,43.2,29.82,SW,225,3.2,-999.0,99,-99.99,,,0.00,Acu-Link.com,2013-04-25 09:23:00,
2013-04-25 02:39:00,43.3,43.0,29.82,SSW,202,5.8,-999.0,99,-99.99,,,0.00,Acu-Link.com,2013-04-25 09:39:00,
2013-04-25 02:54:00,43.3,43.0,29.82,WSW,247,5.3,-999.0,99,-99.99,,,0.00,Acu-Link.com,2013-04-25 09:54:00,
2013-04-25 03:09:00,43.3,43.0,29.82,WNW,292,5.8,-999.0,99,-99.99,,,0.00,Acu-Link.com,2013-04-25 10:09:00,
2013-04-25 03:24:00,43.2,42.9,29.83,ESE,112,5.3,-999.0,99,-99.99,,,0.00,Acu-Link.com,2013-04-25 10:24:00,
2013-04-25 03:39:00,43.2,42.9,29.83,WSW,247,4.7,-999.0,99,-99.99,,,0.00,Acu-Link.com,2013-04-25 10:39:00,
2013-04-25 03:55:00,43.2,42.9,29.83,SSW,202,2.7,-999.0,99,-99.99,,,0.00,Acu-Link.com,2013-04-25 10:55:00,
2013-04-25 04:10:00,43.2,42.9,29.84,WNW,292,5.3,-999.0,99,-99.99,,,0.00,Acu-Link.com,2013-04-25 11:10:00,
2013-04-25 04:25:00,43.2,42.9,29.84,West,270,4.2,-999.0,99,-99.99,,,0.00,Acu-Link.com,2013-04-25 11:25:00,
2013-04-25 04:40:00,43.2,42.9,29.84,WSW,247,4.7,-999.0,99,-99.99,,,0.00,Acu-Link.com,2013-04-25 11:40:00,
2013-04-25 04:56:00,43.2,42.9,29.84,SW,225,6.8,-999.0,99,-99.99,,,0.00,Acu-Link.com,2013-04-25 11:56:00,
2013-04-25 05:11:00,43.2,42.9,29.84,South,180,5.3,-999.0,99,-99.99,,,0.00,Acu-Link.com,2013-04-25 12:11:00,
2013-04-25 05:26:00,43.3,43.0,29.84,West,270,4.7,-999.0,99,-99.99,,,0.00,Acu-Link.com,2013-04-25 12:26:00,
2013-04-25 05:41:00,43.3,43.0,29.84,West,270,6.8,-999.0,99,-99.99,,,0.00,Acu-Link.com,2013-04-25 12:41:00,
2013-04-25 05:56:00,43.3,43.0,29.85,SSW,202,4.2,-999.0,99,-99.99,,,0.00,Acu-Link.com,2013-04-25 12:56:00,
2013-04-25 06:12:00,43.3,43.0,29.85,SW,225,2.7,-999.0,99,-99.99,,,0.00,Acu-Link.com,2013-04-25 13:12:00,
2013-04-25 06:27:00,43.3,43.0,29.86,West,270,2.2,-999.0,99,-99.99,,,0.00,Acu-Link.com,2013-04-25 13:27:00,
2013-04-25 06:42:00,43.5,43.2,29.86,WSW,247,4.2,-999.0,99,-99.99,,,0.00,Acu-Link.com,2013-04-25 13:42:00,
2013-04-25 06:57:00,43.5,43.2,29.87,West,270,1.7,-999.0,99,-99.99,,,0.00,Acu-Link.com,2013-04-25 13:57:00,
2013-04-25 07:12:00,43.5,43.2,29.87,West,270,5.3,-999.0,99,-99.99,,,0.00,Acu-Link.com,2013-04-25 14:12:00,
2013-04-25 07:28:00,43.7,43.4,29.88,WSW,247,2.7,-999.0,99,-99.99,,,0.00,Acu-Link.com,2013-04-25 14:28:00,
2013-04-25 07:43:00,43.9,43.4,29.88,West,270,0.0,-999.0,98,-99.99,,,0.00,Acu-Link.com,2013-04-25 14:43:00,
2013-04-25 07:58:00,44.1,43.3,29.89,West,270,4.2,-999.0,97,-99.99,,,0.00,Acu-Link.com,2013-04-25 14:58:00,
2013-04-25 08:14:00,44.2,43.4,29.90,West,270,6.3,-999.0,97,-99.99,,,0.00,Acu-Link.com,2013-04-25 15:14:00,
2013-04-25 08:29:00,44.2,43.1,29.90,West,270,6.3,-999.0,96,-99.99,,,0.00,Acu-Link.com,2013-04-25 15:29:00,
2013-04-25 08:44:00,44.6,43.5,29.90,SSE,157,4.7,-999.0,96,-99.99,,,0.00,Acu-Link.com,2013-04-25 15:44:00,
2013-04-25 08:59:00,45.3,43.7,29.90,WSW,247,6.3,-999.0,94,-99.99,,,0.00,Acu-Link.com,2013-04-25 15:59:00,
2013-04-25 09:14:00,45.5,43.6,29.91,West,270,5.3,-999.0,93,-99.99,,,0.00,Acu-Link.com,2013-04-25 16:14:00,
2013-04-25 09:30:00,46.2,43.7,29.92,West,270,8.9,-999.0,91,-99.99,,,0.00,Acu-Link.com,2013-04-25 16:30:00,
2013-04-25 09:45:00,46.4,43.6,29.93,West,270,3.2,-999.0,90,-99.99,,,0.00,Acu-Link.com,2013-04-25 16:45:00,
2013-04-25 10:00:00,47.5,44.4,29.93,WNW,292,1.7,-999.0,89,-99.99,,,0.00,Acu-Link.com,2013-04-25 17:00:00,
2013-04-25 10:15:00,48.0,44.3,29.93,SW,225,4.7,-999.0,87,-99.99,,,0.00,Acu-Link.com,2013-04-25 17:15:00,
2013-04-25 10:30:00,49.5,44.6,29.94,WNW,292,4.2,-999.0,83,-99.99,,,0.00,Acu-Link.com,2013-04-25 17:30:00,
2013-04-25 10:46:00,49.5,44.6,29.93,North,0,1.7,-999.0,83,-99.99,,,0.00,Acu-Link.com,2013-04-25 17:46:00,
2013-04-25 11:01:00,50.2,44.9,29.93,SSW,202,5.3,-999.0,82,-99.99,,,0.00,Acu-Link.com,2013-04-25 18:01:00,
2013-04-25 11:16:00,52.9,45.2,29.94,West,270,7.8,-999.0,75,-99.99,,,0.00,Acu-Link.com,2013-04-25 18:16:00,
2013-04-25 11:32:00,54.9,46.0,29.94,SSW,202,6.3,-999.0,72,-99.99,,,0.00,Acu-Link.com,2013-04-25 18:32:00,
2013-04-25 11:47:00,55.0,45.8,29.94,NW,315,6.8,-999.0,71,-99.99,,,0.00,Acu-Link.com,2013-04-25 18:47:00,
2013-04-25 12:02:00,59.2,47.0,29.93,SE,135,7.3,-999.0,64,-99.99,,,0.00,Acu-Link.com,2013-04-25 19:02:00,
2013-04-25 12:18:00,59.4,47.2,29.94,West,270,7.8,-999.0,64,-99.99,,,0.00,Acu-Link.com,2013-04-25 19:18:00,
2013-04-25 12:33:00,59.9,46.4,29.94,SW,225,10.9,-999.0,61,-99.99,,,0.00,Acu-Link.com,2013-04-25 19:33:00,
2013-04-25 12:48:00,62.6,46.7,29.93,West,270,10.9,-999.0,56,-99.99,,,0.00,Acu-Link.com,2013-04-25 19:48:00,
2013-04-25 13:03:00,64.9,47.9,29.93,West,270,9.4,-999.0,54,-99.99,,,0.00,Acu-Link.com,2013-04-25 20:03:00,
2013-04-25 13:18:00,66.0,48.4,29.93,West,270,1.7,-999.0,53,-99.99,,,0.00,Acu-Link.com,2013-04-25 20:18:00,
2013-04-25 13:34:00,65.3,47.7,29.94,West,270,6.3,-999.0,53,-99.99,,,0.00,Acu-Link.com,2013-04-25 20:34:00,
2013-04-25 13:49:00,66.4,48.2,29.94,North,0,3.7,-999.0,52,-99.99,,,0.00,Acu-Link.com,2013-04-25 20:49:00,
2013-04-25 14:04:00,67.1,47.8,29.94,West,270,7.3,-999.0,50,-99.99,,,0.00,Acu-Link.com,2013-04-25 21:04:00,
2013-04-25 14:19:00,66.4,47.7,29.94,West,270,8.9,-999.0,51,-99.99,,,0.00,Acu-Link.com,2013-04-25 21:19:00,
2013-04-25 14:34:00,66.6,48.4,29.94,NNW,337,11.9,-999.0,52,-99.99,,,0.00,Acu-Link.com,2013-04-25 21:34:00,
2013-04-25 14:50:00,69.6,49.6,29.94,West,270,7.8,-999.0,49,-99.99,,,0.00,Acu-Link.com,2013-04-25 21:50:00,
2013-04-25 15:05:00,67.5,49.2,29.93,SW,225,7.8,-999.0,52,-99.99,,,0.00,Acu-Link.com,2013-04-25 22:05:00,
2013-04-25 15:20:00,65.1,48.5,29.93,West,270,14.0,-999.0,55,-99.99,,,0.00,Acu-Link.com,2013-04-25 22:20:00,
2013-04-25 15:35:00,64.6,48.5,29.93,West,270,12.5,-999.0,56,-99.99,,,0.00,Acu-Link.com,2013-04-25 22:35:00,
2013-04-25 15:51:00,64.4,48.4,29.93,SW,225,6.8,-999.0,56,-99.99,,,0.00,Acu-Link.com,2013-04-25 22:51:00,
2013-04-25 16:06:00,64.2,48.6,29.92,South,180,10.4,-999.0,57,-99.99,,,0.00,Acu-Link.com,2013-04-25 23:06:00,
2013-04-25 16:21:00,63.0,48.0,29.92,SSW,202,10.4,-999.0,58,-99.99,,,0.00,Acu-Link.com,2013-04-25 23:21:00,
2013-04-25 16:36:00,63.7,48.6,29.92,West,270,15.5,-999.0,58,-99.99,,,0.00,Acu-Link.com,2013-04-25 23:36:00,
2013-04-25 16:51:00,63.3,48.3,29.91,West,270,17.1,-999.0,58,-99.99,,,0.00,Acu-Link.com,2013-04-25 23:51:00,
2013-04-25 17:07:00,62.8,48.3,29.92,WNW,292,15.5,-999.0,59,-99.99,,,0.00,Acu-Link.com,2013-04-26 00:07:00,
2013-04-25 17:22:00,63.1,48.5,29.92,WNW,292,13.5,-999.0,59,-99.99,,,0.00,Acu-Link.com,2013-04-26 00:22:00,
2013-04-25 17:37:00,62.6,49.0,29.92,ESE,112,13.0,-999.0,61,-99.99,,,0.00,Acu-Link.com,2013-04-26 00:37:00,
2013-04-25 17:52:00,61.9,48.7,29.92,West,270,14.0,-999.0,62,-99.99,,,0.00,Acu-Link.com,2013-04-26 00:52:00,
2013-04-25 18:08:00,60.6,48.4,29.91,WSW,247,15.0,-999.0,64,-99.99,,,0.00,Acu-Link.com,2013-04-26 01:08:00,
2013-04-25 18:23:00,59.0,47.7,29.92,West,270,18.6,-999.0,66,-99.99,,,0.00,Acu-Link.com,2013-04-26 01:23:00,
2013-04-25 18:38:00,57.9,47.4,29.91,WSW,247,13.0,-999.0,68,-99.99,,,0.00,Acu-Link.com,2013-04-26 01:38:00,
2013-04-25 18:53:00,56.5,46.8,29.92,South,180,14.5,-999.0,70,-99.99,,,0.00,Acu-Link.com,2013-04-26 01:53:00,
2013-04-25 19:09:00,55.0,46.5,29.92,SW,225,11.4,-999.0,73,-99.99,,,0.00,Acu-Link.com,2013-04-26 02:09:00,
2013-04-25 19:24:00,53.1,46.1,29.91,SSW,202,15.0,-999.0,77,-99.99,,,0.00,Acu-Link.com,2013-04-26 02:24:00,
2013-04-25 19:39:00,52.2,45.9,29.92,West,270,13.5,-999.0,79,-99.99,,,0.00,Acu-Link.com,2013-04-26 02:39:00,
2013-04-25 19:55:00,51.1,45.5,29.93,WSW,247,14.0,-999.0,81,-99.99,,,0.00,Acu-Link.com,2013-04-26 02:55:00,
2013-04-25 20:10:00,50.2,45.2,29.93,South,180,16.6,-999.0,83,-99.99,,,0.00,Acu-Link.com,2013-04-26 03:10:00,
2013-04-25 20:25:00,49.3,45.0,29.94,West,270,17.6,-999.0,85,-99.99,,,0.00,Acu-Link.com,2013-04-26 03:25:00,
2013-04-25 20:40:00,48.7,44.7,29.94,South,180,15.0,-999.0,86,-99.99,,,0.00,Acu-Link.com,2013-04-26 03:40:00,
2013-04-25 20:56:00,48.2,44.8,29.94,West,270,14.0,-999.0,88,-99.99,,,0.00,Acu-Link.com,2013-04-26 03:56:00,
2013-04-25 21:11:00,47.8,44.7,29.95,West,270,11.4,-999.0,89,-99.99,,,0.00,Acu-Link.com,2013-04-26 04:11:00,
2013-04-25 21:26:00,47.1,44.3,29.96,WNW,292,13.0,-999.0,90,-99.99,,,0.00,Acu-Link.com,2013-04-26 04:26:00,
2013-04-25 21:41:00,47.1,44.3,29.96,SW,225,16.6,-999.0,90,-99.99,,,0.00,Acu-Link.com,2013-04-26 04:41:00,
2013-04-25 21:56:00,46.6,44.1,29.96,SSE,157,12.5,-999.0,91,-99.99,,,0.00,Acu-Link.com,2013-04-26 04:56:00,
2013-04-25 22:12:00,46.4,44.2,29.96,SSE,157,10.4,-999.0,92,-99.99,,,0.00,Acu-Link.com,2013-04-26 05:12:00,
2013-04-25 22:27:00,46.0,44.1,29.97,SSW,202,9.4,-999.0,93,-99.99,,,0.00,Acu-Link.com,2013-04-26 05:27:00,
2013-04-25 22:42:00,46.0,44.4,29.97,West,270,11.4,-999.0,94,-99.99,,,0.00,Acu-Link.com,2013-04-26 05:42:00,
2013-04-25 22:58:00,45.5,44.2,29.96,West,270,8.3,-999.0,95,-99.99,,,0.00,Acu-Link.com,2013-04-26 05:58:00,
2013-04-25 23:13:00,45.3,44.0,29.97,SW,225,8.3,-999.0,95,-99.99,,,0.00,Acu-Link.com,2013-04-26 06:13:00,
2013-04-25 23:28:00,45.3,44.2,29.96,WSW,247,7.3,-999.0,96,-99.99,,,0.00,Acu-Link.com,2013-04-26 06:28:00,
2013-04-25 23:43:00,45.1,44.0,29.97,West,270,4.2,-999.0,96,-99.99,,,0.00,Acu-Link.com,2013-04-26 06:43:00,
2013-04-25 23:58:00,45.0,44.2,29.98,West,270,5.8,-999.0,97,-99.99,,,0.00,Acu-Link.com,2013-04-26 06:58:00,